sensor_id;sensor_type;location;lat;lon;timestamp;pressure;altitude;pressure_sealevel;temperature;humidity
72414;BME280;60995;52.154;4.498;2023-07-13T00:00:22;101320.25;;;19.83;100.00
72414;BME280;60995;52.154;4.498;2023-07-13T00:02:39;101306.53;;;19.51;100.00
72414;BME280;60995;52.154;4.498;2023-07-13T00:04:55;101308.63;;;19.73;100.00
72414;BME280;60995;52.154;4.498;2023-07-13T00:07:11;101312.78;;;19.69;100.00
72414;BME280;60995;52.154;4.498;2023-07-13T00:09:30;101304.59;;;19.60;100.00
72414;BME280;60995;52.154;4.498;2023-07-13T00:11:54;101304.81;;;19.74;100.00
72414;BME280;60995;52.154;4.498;2023-07-13T00:14:11;101305.97;;;19.79;100.00
72414;BME280;60995;52.154;4.498;2023-07-13T00:16:28;101309.66;;;19.72;100.00
72414;BME280;60995;52.154;4.498;2023-07-13T00:18:45;101315.84;;;19.74;100.00
72414;BME280;60995;52.154;4.498;2023-07-13T00:21:01;101309.75;;;19.78;100.00
72414;BME280;60995;52.154;4.498;2023-07-13T00:23:21;101307.09;;;19.70;100.00
72414;BME280;60995;52.154;4.498;2023-07-13T00:25:37;101312.09;;;19.66;100.00
72414;BME280;60995;52.154;4.498;2023-07-13T00:27:54;101326.91;;;19.65;100.00
72414;BME280;60995;52.154;4.498;2023-07-13T00:30:11;101318.84;;;19.79;100.00
72414;BME280;60995;52.154;4.498;2023-07-13T00:32:28;101319.69;;;19.64;100.00
72414;BME280;60995;52.154;4.498;2023-07-13T00:34:45;101325.78;;;19.75;100.00
72414;BME280;60995;52.154;4.498;2023-07-13T00:37:01;101316.19;;;19.71;100.00
72414;BME280;60995;52.154;4.498;2023-07-13T00:39:18;101328.72;;;19.58;100.00
72414;BME280;60995;52.154;4.498;2023-07-13T00:41:35;101330.41;;;19.59;100.00
72414;BME280;60995;52.154;4.498;2023-07-13T00:43:52;101322.72;;;19.70;100.00
72414;BME280;60995;52.154;4.498;2023-07-13T00:46:24;101322.09;;;19.67;100.00
72414;BME280;60995;52.154;4.498;2023-07-13T00:48:42;101326.84;;;19.74;99.85
72414;BME280;60995;52.154;4.498;2023-07-13T00:51:02;101321.56;;;19.49;99.68
72414;BME280;60995;52.154;4.498;2023-07-13T00:53:19;101323.94;;;19.52;98.62
72414;BME280;60995;52.154;4.498;2023-07-13T00:55:36;101320.75;;;19.40;99.06
72414;BME280;60995;52.154;4.498;2023-07-13T00:57:52;101318.94;;;19.32;98.93
72414;BME280;60995;52.154;4.498;2023-07-13T01:00:09;101321.00;;;19.30;99.77
72414;BME280;60995;52.154;4.498;2023-07-13T01:02:28;101318.69;;;19.19;99.15
72414;BME280;60995;52.154;4.498;2023-07-13T01:04:44;101328.69;;;19.12;99.50
72414;BME280;60995;52.154;4.498;2023-07-13T01:07:01;101331.38;;;19.20;99.27
72414;BME280;60995;52.154;4.498;2023-07-13T01:09:17;101327.84;;;19.11;98.74
72414;BME280;60995;52.154;4.498;2023-07-13T01:11:33;101324.72;;;19.14;97.96
72414;BME280;60995;52.154;4.498;2023-07-13T01:13:50;101319.28;;;19.29;97.57
72414;BME280;60995;52.154;4.498;2023-07-13T01:16:15;101321.00;;;19.30;96.44
72414;BME280;60995;52.154;4.498;2023-07-13T01:18:38;101324.19;;;19.19;95.62
72414;BME280;60995;52.154;4.498;2023-07-13T01:21:01;101330.75;;;19.10;95.63
72414;BME280;60995;52.154;4.498;2023-07-13T01:23:19;101325.50;;;19.00;96.05
72414;BME280;60995;52.154;4.498;2023-07-13T01:25:36;101321.41;;;18.96;95.96
72414;BME280;60995;52.154;4.498;2023-07-13T01:27:53;101326.59;;;18.91;96.54
72414;BME280;60995;52.154;4.498;2023-07-13T01:30:10;101323.84;;;18.82;96.67
72414;BME280;60995;52.154;4.498;2023-07-13T01:32:26;101331.81;;;18.77;97.29
72414;BME280;60995;52.154;4.498;2023-07-13T01:34:43;101341.84;;;18.62;98.16
72414;BME280;60995;52.154;4.498;2023-07-13T01:37:00;101343.84;;;18.68;98.74
72414;BME280;60995;52.154;4.498;2023-07-13T01:39:16;101341.28;;;18.66;97.89
72414;BME280;60995;52.154;4.498;2023-07-13T01:41:32;101340.66;;;18.56;98.33
72414;BME280;60995;52.154;4.498;2023-07-13T01:43:49;101340.31;;;18.59;98.51
72414;BME280;60995;52.154;4.498;2023-07-13T01:46:05;101333.47;;;18.55;99.05
72414;BME280;60995;52.154;4.498;2023-07-13T01:48:21;101346.13;;;18.56;98.72
72414;BME280;60995;52.154;4.498;2023-07-13T01:50:38;101347.50;;;18.60;98.79
72414;BME280;60995;52.154;4.498;2023-07-13T01:52:54;101348.22;;;18.54;99.14
72414;BME280;60995;52.154;4.498;2023-07-13T01:55:10;101346.88;;;18.50;99.33
72414;BME280;60995;52.154;4.498;2023-07-13T01:57:27;101352.53;;;18.48;100.00
72414;BME280;60995;52.154;4.498;2023-07-13T01:59:43;101350.78;;;18.56;100.00
72414;BME280;60995;52.154;4.498;2023-07-13T02:01:59;101347.56;;;18.44;100.00
72414;BME280;60995;52.154;4.498;2023-07-13T02:04:16;101355.13;;;18.50;100.00
72414;BME280;60995;52.154;4.498;2023-07-13T02:06:32;101350.66;;;18.49;100.00
72414;BME280;60995;52.154;4.498;2023-07-13T02:08:48;101353.59;;;18.39;100.00
72414;BME280;60995;52.154;4.498;2023-07-13T02:11:05;101351.34;;;18.43;100.00
72414;BME280;60995;52.154;4.498;2023-07-13T02:13:21;101360.66;;;18.33;100.00
72414;BME280;60995;52.154;4.498;2023-07-13T02:15:40;101358.94;;;18.32;100.00
72414;BME280;60995;52.154;4.498;2023-07-13T02:17:57;101363.75;;;18.30;100.00
72414;BME280;60995;52.154;4.498;2023-07-13T02:20:14;101373.38;;;18.26;100.00
72414;BME280;60995;52.154;4.498;2023-07-13T02:22:30;101368.19;;;18.31;100.00
72414;BME280;60995;52.154;4.498;2023-07-13T02:24:46;101367.19;;;18.32;100.00
72414;BME280;60995;52.154;4.498;2023-07-13T02:27:03;101365.31;;;18.25;100.00
72414;BME280;60995;52.154;4.498;2023-07-13T02:29:20;101361.34;;;18.35;100.00
72414;BME280;60995;52.154;4.498;2023-07-13T02:31:37;101360.97;;;18.39;100.00
72414;BME280;60995;52.154;4.498;2023-07-13T02:33:53;101357.41;;;18.30;100.00
72414;BME280;60995;52.154;4.498;2023-07-13T02:36:10;101362.03;;;18.29;100.00
72414;BME280;60995;52.154;4.498;2023-07-13T02:38:28;101365.97;;;18.35;100.00
72414;BME280;60995;52.154;4.498;2023-07-13T02:40:46;101365.44;;;18.31;100.00
72414;BME280;60995;52.154;4.498;2023-07-13T02:43:02;101362.84;;;18.46;100.00
72414;BME280;60995;52.154;4.498;2023-07-13T02:45:19;101365.78;;;18.45;100.00
72414;BME280;60995;52.154;4.498;2023-07-13T02:47:36;101364.06;;;18.44;100.00
72414;BME280;60995;52.154;4.498;2023-07-13T02:49:52;101371.56;;;18.58;100.00
72414;BME280;60995;52.154;4.498;2023-07-13T02:52:08;101366.22;;;18.65;100.00
72414;BME280;60995;52.154;4.498;2023-07-13T02:54:25;101366.72;;;18.68;100.00
72414;BME280;60995;52.154;4.498;2023-07-13T02:56:41;101370.09;;;18.79;100.00
72414;BME280;60995;52.154;4.498;2023-07-13T02:58:59;101361.22;;;18.68;100.00
72414;BME280;60995;52.154;4.498;2023-07-13T03:01:15;101360.66;;;18.73;100.00
72414;BME280;60995;52.154;4.498;2023-07-13T03:03:34;101365.81;;;18.76;100.00
72414;BME280;60995;52.154;4.498;2023-07-13T03:05:59;101363.59;;;18.80;100.00
72414;BME280;60995;52.154;4.498;2023-07-13T03:08:19;101374.28;;;18.66;100.00
72414;BME280;60995;52.154;4.498;2023-07-13T03:10:35;101373.59;;;18.64;100.00
72414;BME280;60995;52.154;4.498;2023-07-13T03:12:52;101376.22;;;18.58;100.00
72414;BME280;60995;52.154;4.498;2023-07-13T03:15:08;101382.84;;;18.72;100.00
72414;BME280;60995;52.154;4.498;2023-07-13T03:17:25;101381.31;;;18.69;100.00
72414;BME280;60995;52.154;4.498;2023-07-13T03:19:41;101384.25;;;18.67;100.00
72414;BME280;60995;52.154;4.498;2023-07-13T03:21:58;101382.56;;;18.58;100.00
72414;BME280;60995;52.154;4.498;2023-07-13T03:24:14;101373.84;;;18.46;100.00
72414;BME280;60995;52.154;4.498;2023-07-13T03:26:31;101369.41;;;18.37;100.00
72414;BME280;60995;52.154;4.498;2023-07-13T03:28:48;101374.69;;;18.47;100.00
72414;BME280;60995;52.154;4.498;2023-07-13T03:31:08;101382.41;;;18.51;100.00
72414;BME280;60995;52.154;4.498;2023-07-13T03:33:36;101383.28;;;18.44;100.00
72414;BME280;60995;52.154;4.498;2023-07-13T03:35:53;101386.56;;;18.47;100.00
72414;BME280;60995;52.154;4.498;2023-07-13T03:38:09;101386.19;;;18.50;100.00
72414;BME280;60995;52.154;4.498;2023-07-13T03:40:27;101387.91;;;18.51;100.00
72414;BME280;60995;52.154;4.498;2023-07-13T03:42:44;101394.25;;;18.52;100.00
72414;BME280;60995;52.154;4.498;2023-07-13T03:45:00;101390.84;;;18.50;100.00
72414;BME280;60995;52.154;4.498;2023-07-13T03:47:16;101392.56;;;18.43;100.00
72414;BME280;60995;52.154;4.498;2023-07-13T03:49:32;101390.50;;;18.45;100.00
72414;BME280;60995;52.154;4.498;2023-07-13T03:51:49;101393.06;;;18.38;100.00
72414;BME280;60995;52.154;4.498;2023-07-13T03:54:05;101397.31;;;18.57;100.00
72414;BME280;60995;52.154;4.498;2023-07-13T03:56:22;101406.97;;;18.53;100.00
72414;BME280;60995;52.154;4.498;2023-07-13T03:58:40;101408.69;;;18.54;100.00
72414;BME280;60995;52.154;4.498;2023-07-13T04:00:57;101403.50;;;18.59;100.00
72414;BME280;60995;52.154;4.498;2023-07-13T04:03:15;101398.81;;;18.68;100.00
72414;BME280;60995;52.154;4.498;2023-07-13T04:05:32;101400.72;;;18.67;100.00
72414;BME280;60995;52.154;4.498;2023-07-13T04:07:48;101417.25;;;18.59;100.00
72414;BME280;60995;52.154;4.498;2023-07-13T04:10:05;101412.56;;;18.76;100.00
72414;BME280;60995;52.154;4.498;2023-07-13T04:12:21;101414.06;;;18.87;100.00
72414;BME280;60995;52.154;4.498;2023-07-13T04:14:38;101412.00;;;18.81;100.00
72414;BME280;60995;52.154;4.498;2023-07-13T04:16:54;101410.84;;;18.75;100.00
72414;BME280;60995;52.154;4.498;2023-07-13T04:19:10;101414.34;;;19.00;100.00
72414;BME280;60995;52.154;4.498;2023-07-13T04:21:28;101413.72;;;18.90;100.00
72414;BME280;60995;52.154;4.498;2023-07-13T04:23:45;101418.50;;;18.96;100.00
72414;BME280;60995;52.154;4.498;2023-07-13T04:26:02;101420.59;;;18.94;100.00
72414;BME280;60995;52.154;4.498;2023-07-13T04:28:22;101420.16;;;19.14;100.00
72414;BME280;60995;52.154;4.498;2023-07-13T04:30:40;101410.25;;;19.05;100.00
72414;BME280;60995;52.154;4.498;2023-07-13T04:32:56;101418.94;;;19.40;100.00
72414;BME280;60995;52.154;4.498;2023-07-13T04:35:12;101419.22;;;19.53;100.00
72414;BME280;60995;52.154;4.498;2023-07-13T04:37:30;101414.44;;;19.47;100.00
72414;BME280;60995;52.154;4.498;2023-07-13T04:39:46;101426.41;;;19.54;100.00
72414;BME280;60995;52.154;4.498;2023-07-13T04:42:03;101428.84;;;19.57;100.00
72414;BME280;60995;52.154;4.498;2023-07-13T04:44:20;101420.19;;;19.60;100.00
72414;BME280;60995;52.154;4.498;2023-07-13T04:46:37;101420.41;;;19.82;100.00
72414;BME280;60995;52.154;4.498;2023-07-13T04:48:53;101417.47;;;19.83;100.00
72414;BME280;60995;52.154;4.498;2023-07-13T04:51:10;101423.16;;;19.82;100.00
72414;BME280;60995;52.154;4.498;2023-07-13T04:53:27;101425.41;;;20.02;100.00
72414;BME280;60995;52.154;4.498;2023-07-13T04:55:44;101427.78;;;20.05;100.00
72414;BME280;60995;52.154;4.498;2023-07-13T04:58:00;101427.56;;;20.29;100.00
72414;BME280;60995;52.154;4.498;2023-07-13T05:00:16;101423.94;;;20.29;100.00
72414;BME280;60995;52.154;4.498;2023-07-13T05:02:34;101422.47;;;20.56;100.00
72414;BME280;60995;52.154;4.498;2023-07-13T05:04:51;101425.91;;;20.73;100.00
72414;BME280;60995;52.154;4.498;2023-07-13T05:07:07;101429.75;;;21.09;100.00
72414;BME280;60995;52.154;4.498;2023-07-13T05:09:23;101429.06;;;21.22;100.00
72414;BME280;60995;52.154;4.498;2023-07-13T05:11:39;101421.28;;;21.47;99.02
72414;BME280;60995;52.154;4.498;2023-07-13T05:13:56;101421.66;;;21.80;95.24
72414;BME280;60995;52.154;4.498;2023-07-13T05:16:12;101423.81;;;22.07;92.72
72414;BME280;60995;52.154;4.498;2023-07-13T05:18:29;101434.41;;;22.53;89.80
72414;BME280;60995;52.154;4.498;2023-07-13T05:20:46;101432.00;;;22.85;86.20
72414;BME280;60995;52.154;4.498;2023-07-13T05:23:02;101432.13;;;23.05;83.76
72414;BME280;60995;52.154;4.498;2023-07-13T05:25:19;101430.81;;;23.50;80.56
72414;BME280;60995;52.154;4.498;2023-07-13T05:27:36;101430.84;;;23.70;79.65
72414;BME280;60995;52.154;4.498;2023-07-13T05:29:52;101427.09;;;24.11;77.18
72414;BME280;60995;52.154;4.498;2023-07-13T05:32:09;101419.50;;;25.44;69.38
72414;BME280;60995;52.154;4.498;2023-07-13T05:34:25;101424.66;;;24.75;68.90
72414;BME280;60995;52.154;4.498;2023-07-13T05:36:42;101426.91;;;23.31;74.85
72414;BME280;60995;52.154;4.498;2023-07-13T05:38:59;101437.03;;;23.10;76.89
72414;BME280;60995;52.154;4.498;2023-07-13T05:41:15;101433.75;;;23.35;77.00
72414;BME280;60995;52.154;4.498;2023-07-13T05:43:31;101436.00;;;23.73;77.46
72414;BME280;60995;52.154;4.498;2023-07-13T05:45:48;101428.06;;;26.50;63.69
72414;BME280;60995;52.154;4.498;2023-07-13T05:48:05;101431.94;;;27.42;56.58
72414;BME280;60995;52.154;4.498;2023-07-13T05:50:22;101429.31;;;27.47;54.60
72414;BME280;60995;52.154;4.498;2023-07-13T05:52:38;101436.56;;;27.30;54.69
72414;BME280;60995;52.154;4.498;2023-07-13T05:54:54;101440.66;;;26.97;54.64
72414;BME280;60995;52.154;4.498;2023-07-13T05:57:11;101440.88;;;26.33;58.04
72414;BME280;60995;52.154;4.498;2023-07-13T05:59:27;101443.28;;;25.65;61.38
72414;BME280;60995;52.154;4.498;2023-07-13T06:01:43;101441.22;;;25.86;59.24
72414;BME280;60995;52.154;4.498;2023-07-13T06:03:59;101442.06;;;26.87;55.83
72414;BME280;60995;52.154;4.498;2023-07-13T06:06:16;101443.84;;;27.49;53.39
72414;BME280;60995;52.154;4.498;2023-07-13T06:08:33;101440.25;;;26.74;55.75
72414;BME280;60995;52.154;4.498;2023-07-13T06:10:49;101444.78;;;27.24;54.12
72414;BME280;60995;52.154;4.498;2023-07-13T06:13:05;101449.84;;;27.65;51.87
72414;BME280;60995;52.154;4.498;2023-07-13T06:15:21;101456.47;;;27.33;51.89
72414;BME280;60995;52.154;4.498;2023-07-13T06:17:38;101460.72;;;27.85;52.32
72414;BME280;60995;52.154;4.498;2023-07-13T06:19:54;101461.66;;;27.79;48.13
72414;BME280;60995;52.154;4.498;2023-07-13T06:22:10;101464.44;;;25.21;57.40
72414;BME280;60995;52.154;4.498;2023-07-13T06:24:27;101465.34;;;26.49;54.78
72414;BME280;60995;52.154;4.498;2023-07-13T06:26:43;101470.38;;;28.48;48.37
72414;BME280;60995;52.154;4.498;2023-07-13T06:28:59;101465.41;;;26.86;51.70
72414;BME280;60995;52.154;4.498;2023-07-13T06:31:16;101464.72;;;27.59;51.26
72414;BME280;60995;52.154;4.498;2023-07-13T06:33:32;101468.34;;;28.55;47.88
72414;BME280;60995;52.154;4.498;2023-07-13T06:35:49;101460.78;;;29.73;44.62
72414;BME280;60995;52.154;4.498;2023-07-13T06:38:05;101468.19;;;28.15;48.32
72414;BME280;60995;52.154;4.498;2023-07-13T06:40:22;101465.28;;;26.56;53.58
72414;BME280;60995;52.154;4.498;2023-07-13T06:42:38;101471.22;;;27.40;51.06
72414;BME280;60995;52.154;4.498;2023-07-13T06:44:54;101464.38;;;30.88;43.34
72414;BME280;60995;52.154;4.498;2023-07-13T06:47:10;101476.25;;;31.17;39.62
72414;BME280;60995;52.154;4.498;2023-07-13T06:49:27;101479.41;;;29.38;43.70
72414;BME280;60995;52.154;4.498;2023-07-13T06:51:43;101470.75;;;28.99;42.65
72414;BME280;60995;52.154;4.498;2023-07-13T06:53:59;101475.97;;;28.25;44.70
72414;BME280;60995;52.154;4.498;2023-07-13T06:56:15;101475.13;;;28.12;46.37
72414;BME280;60995;52.154;4.498;2023-07-13T06:58:34;101480.22;;;27.54;45.00
72414;BME280;60995;52.154;4.498;2023-07-13T07:00:52;101476.53;;;27.05;45.95
72414;BME280;60995;52.154;4.498;2023-07-13T07:03:08;101483.09;;;26.23;47.54
72414;BME280;60995;52.154;4.498;2023-07-13T07:05:24;101481.13;;;26.05;48.49
72414;BME280;60995;52.154;4.498;2023-07-13T07:07:41;101482.25;;;26.73;46.25
72414;BME280;60995;52.154;4.498;2023-07-13T07:09:57;101486.13;;;27.28;44.50
72414;BME280;60995;52.154;4.498;2023-07-13T07:12:14;101481.69;;;27.57;43.88
72414;BME280;60995;52.154;4.498;2023-07-13T07:14:31;101486.25;;;27.82;44.13
72414;BME280;60995;52.154;4.498;2023-07-13T07:16:47;101495.25;;;25.65;50.25
72414;BME280;60995;52.154;4.498;2023-07-13T07:19:04;101497.84;;;24.87;53.34
72414;BME280;60995;52.154;4.498;2023-07-13T07:21:20;101493.34;;;25.00;52.52
72414;BME280;60995;52.154;4.498;2023-07-13T07:23:39;101500.88;;;24.19;56.17
72414;BME280;60995;52.154;4.498;2023-07-13T07:25:55;101499.41;;;24.50;55.61
72414;BME280;60995;52.154;4.498;2023-07-13T07:28:14;101496.00;;;25.26;54.55
72414;BME280;60995;52.154;4.498;2023-07-13T07:30:33;101492.38;;;29.04;43.09
72414;BME280;60995;52.154;4.498;2023-07-13T07:32:50;101483.59;;;31.95;35.38
72414;BME280;60995;52.154;4.498;2023-07-13T07:35:06;101492.44;;;32.74;31.48
72414;BME280;60995;52.154;4.498;2023-07-13T07:37:23;101495.75;;;34.34;28.65
72414;BME280;60995;52.154;4.498;2023-07-13T07:39:40;101498.28;;;34.04;29.95
72414;BME280;60995;52.154;4.498;2023-07-13T07:41:56;101492.63;;;34.25;28.43
72414;BME280;60995;52.154;4.498;2023-07-13T07:44:13;101495.53;;;32.82;29.57
72414;BME280;60995;52.154;4.498;2023-07-13T07:46:29;101496.78;;;32.22;30.37
72414;BME280;60995;52.154;4.498;2023-07-13T07:48:46;101501.81;;;31.65;32.57
72414;BME280;60995;52.154;4.498;2023-07-13T07:51:02;101501.19;;;29.25;37.42
72414;BME280;60995;52.154;4.498;2023-07-13T07:53:18;101517.59;;;27.96;41.35
72414;BME280;60995;52.154;4.498;2023-07-13T07:55:35;101522.75;;;27.80;43.38
72414;BME280;60995;52.154;4.498;2023-07-13T07:57:52;101509.50;;;28.96;43.04
72414;BME280;60995;52.154;4.498;2023-07-13T08:00:08;101510.66;;;32.06;36.53
72414;BME280;60995;52.154;4.498;2023-07-13T08:02:26;101504.88;;;33.46;32.71
72414;BME280;60995;52.154;4.498;2023-07-13T08:04:42;101500.13;;;30.63;36.46
72414;BME280;60995;52.154;4.498;2023-07-13T08:06:59;101517.47;;;28.33;42.21
72414;BME280;60995;52.154;4.498;2023-07-13T08:09:18;101523.00;;;26.03;50.80
72414;BME280;60995;52.154;4.498;2023-07-13T08:11:34;101526.91;;;24.78;56.14
72414;BME280;60995;52.154;4.498;2023-07-13T08:13:51;101528.94;;;23.82;61.57
72414;BME280;60995;52.154;4.498;2023-07-13T08:16:08;101519.19;;;23.38;65.53
72414;BME280;60995;52.154;4.498;2023-07-13T08:18:24;101526.31;;;25.48;59.28
72414;BME280;60995;52.154;4.498;2023-07-13T08:20:41;101523.75;;;25.47;56.27
72414;BME280;60995;52.154;4.498;2023-07-13T08:22:57;101535.34;;;25.23;57.90
72414;BME280;60995;52.154;4.498;2023-07-13T08:25:13;101533.38;;;25.44;56.64
72414;BME280;60995;52.154;4.498;2023-07-13T08:27:30;101526.88;;;26.09;56.02
72414;BME280;60995;52.154;4.498;2023-07-13T08:29:47;101522.63;;;26.82;53.98
72414;BME280;60995;52.154;4.498;2023-07-13T08:32:06;101528.91;;;27.70;49.99
72414;BME280;60995;52.154;4.498;2023-07-13T08:34:25;101527.34;;;28.05;48.21
72414;BME280;60995;52.154;4.498;2023-07-13T08:36:41;101519.34;;;30.72;41.85
72414;BME280;60995;52.154;4.498;2023-07-13T08:38:57;101517.66;;;32.69;37.28
72414;BME280;60995;52.154;4.498;2023-07-13T08:41:23;101527.66;;;32.97;35.24
72414;BME280;60995;52.154;4.498;2023-07-13T08:43:39;101522.75;;;34.04;33.26
72414;BME280;60995;52.154;4.498;2023-07-13T08:46:15;101517.03;;;33.78;33.18
72414;BME280;60995;52.154;4.498;2023-07-13T08:48:56;101527.22;;;31.80;35.88
72414;BME280;60995;52.154;4.498;2023-07-13T08:53:47;101530.34;;;30.44;38.88
72414;BME280;60995;52.154;4.498;2023-07-13T08:56:14;101533.03;;;31.07;38.14
72414;BME280;60995;52.154;4.498;2023-07-13T08:58:34;101532.53;;;30.08;40.37
72414;BME280;60995;52.154;4.498;2023-07-13T09:00:59;101537.03;;;31.78;37.43
72414;BME280;60995;52.154;4.498;2023-07-13T09:03:37;101525.59;;;33.25;33.69
72414;BME280;60995;52.154;4.498;2023-07-13T09:06:02;101539.63;;;33.20;33.49
72414;BME280;60995;52.154;4.498;2023-07-13T09:16:23;101530.75;;;31.98;34.99
72414;BME280;60995;52.154;4.498;2023-07-13T09:18:43;101537.63;;;30.79;37.63
72414;BME280;60995;52.154;4.498;2023-07-13T09:21:14;101541.97;;;31.26;37.44
72414;BME280;60995;52.154;4.498;2023-07-13T09:23:35;101547.66;;;33.01;34.01
72414;BME280;60995;52.154;4.498;2023-07-13T09:25:58;101538.03;;;33.39;32.81
72414;BME280;60995;52.154;4.498;2023-07-13T09:28:22;101539.69;;;34.55;31.30
72414;BME280;60995;52.154;4.498;2023-07-13T09:33:17;101564.03;;;30.03;38.52
72414;BME280;60995;52.154;4.498;2023-07-13T09:35:34;101540.75;;;30.32;38.93
72414;BME280;60995;52.154;4.498;2023-07-13T09:37:56;101552.94;;;30.89;37.20
72414;BME280;60995;52.154;4.498;2023-07-13T09:40:28;101551.59;;;29.82;38.88
72414;BME280;60995;52.154;4.498;2023-07-13T09:43:13;101560.59;;;29.84;39.12
72414;BME280;60995;52.154;4.498;2023-07-13T09:45:33;101564.16;;;28.92;41.46
72414;BME280;60995;52.154;4.498;2023-07-13T09:47:59;101556.03;;;30.92;37.95
72414;BME280;60995;52.154;4.498;2023-07-13T09:50:19;101565.59;;;31.53;37.03
72414;BME280;60995;52.154;4.498;2023-07-13T09:52:45;101572.59;;;28.49;42.19
72414;BME280;60995;52.154;4.498;2023-07-13T09:55:04;101572.81;;;28.05;45.18
72414;BME280;60995;52.154;4.498;2023-07-13T09:57:23;101566.03;;;31.22;38.38
72414;BME280;60995;52.154;4.498;2023-07-13T09:59:44;101571.97;;;32.47;34.96
72414;BME280;60995;52.154;4.498;2023-07-13T10:04:43;101589.16;;;30.44;37.47
72414;BME280;60995;52.154;4.498;2023-07-13T10:07:08;101587.69;;;30.25;37.93
72414;BME280;60995;52.154;4.498;2023-07-13T10:09:27;101583.19;;;31.26;36.97
72414;BME280;60995;52.154;4.498;2023-07-13T10:11:43;101595.75;;;29.28;40.17
72414;BME280;60995;52.154;4.498;2023-07-13T10:14:02;101600.22;;;29.05;41.04
72414;BME280;60995;52.154;4.498;2023-07-13T10:16:28;101608.72;;;28.02;42.21
72414;BME280;60995;52.154;4.498;2023-07-13T10:18:55;101612.44;;;27.59;44.04
72414;BME280;60995;52.154;4.498;2023-07-13T10:21:19;101614.81;;;28.41;43.51
72414;BME280;60995;52.154;4.498;2023-07-13T10:23:37;101619.81;;;27.53;45.51
72414;BME280;60995;52.154;4.498;2023-07-13T10:25:55;101628.03;;;27.85;45.22
72414;BME280;60995;52.154;4.498;2023-07-13T10:30:41;101622.97;;;28.12;43.95
72414;BME280;60995;52.154;4.498;2023-07-13T10:33:03;101627.88;;;29.78;41.28
72414;BME280;60995;52.154;4.498;2023-07-13T10:35:28;101625.16;;;29.30;41.78
72414;BME280;60995;52.154;4.498;2023-07-13T10:37:54;101625.09;;;29.54;41.38
72414;BME280;60995;52.154;4.498;2023-07-13T10:40:34;101626.31;;;29.23;41.92
72414;BME280;60995;52.154;4.498;2023-07-13T10:42:57;101632.06;;;30.33;40.37
72414;BME280;60995;52.154;4.498;2023-07-13T10:45:19;101634.09;;;31.17;38.01
72414;BME280;60995;52.154;4.498;2023-07-13T10:47:38;101628.13;;;31.31;37.04
72414;BME280;60995;52.154;4.498;2023-07-13T10:49:57;101639.78;;;32.06;36.56
72414;BME280;60995;52.154;4.498;2023-07-13T10:52:42;101632.91;;;30.96;36.88
72414;BME280;60995;52.154;4.498;2023-07-13T10:55:03;101634.03;;;29.92;39.71
72414;BME280;60995;52.154;4.498;2023-07-13T10:57:21;101635.50;;;30.23;39.86
72414;BME280;60995;52.154;4.498;2023-07-13T10:59:37;101640.25;;;31.59;36.54
72414;BME280;60995;52.154;4.498;2023-07-13T11:04:20;101652.72;;;29.62;39.31
72414;BME280;60995;52.154;4.498;2023-07-13T11:06:39;101640.78;;;28.53;41.87
72414;BME280;60995;52.154;4.498;2023-07-13T11:11:44;101638.47;;;30.33;39.26
72414;BME280;60995;52.154;4.498;2023-07-13T11:14:02;101638.66;;;29.98;39.29
72414;BME280;60995;52.154;4.498;2023-07-13T11:18:39;101641.09;;;29.82;40.44
72414;BME280;60995;52.154;4.498;2023-07-13T11:21:16;101633.94;;;30.44;38.42
72414;BME280;60995;52.154;4.498;2023-07-13T11:23:42;101642.78;;;30.53;38.73
72414;BME280;60995;52.154;4.498;2023-07-13T11:26:00;101646.63;;;29.53;39.46
72414;BME280;60995;52.154;4.498;2023-07-13T11:28:23;101646.50;;;28.47;41.10
72414;BME280;60995;52.154;4.498;2023-07-13T11:33:19;101638.59;;;29.10;40.40
72414;BME280;60995;52.154;4.498;2023-07-13T11:38:20;101643.66;;;28.35;42.42
72414;BME280;60995;52.154;4.498;2023-07-13T11:41:04;101647.03;;;29.45;41.02
72414;BME280;60995;52.154;4.498;2023-07-13T11:43:23;101638.13;;;28.16;43.96
72414;BME280;60995;52.154;4.498;2023-07-13T11:45:40;101644.00;;;28.27;43.94
72414;BME280;60995;52.154;4.498;2023-07-13T11:47:56;101645.91;;;28.45;44.11
72414;BME280;60995;52.154;4.498;2023-07-13T11:50:23;101647.94;;;28.07;45.66
72414;BME280;60995;52.154;4.498;2023-07-13T11:52:40;101651.41;;;28.33;45.26
72414;BME280;60995;52.154;4.498;2023-07-13T11:54:57;101654.03;;;29.12;44.36
72414;BME280;60995;52.154;4.498;2023-07-13T11:57:36;101662.09;;;30.09;40.21
72414;BME280;60995;52.154;4.498;2023-07-13T12:00:02;101659.44;;;27.92;45.88
72414;BME280;60995;52.154;4.498;2023-07-13T12:04:47;101657.94;;;29.59;40.57
72414;BME280;60995;52.154;4.498;2023-07-13T12:07:07;101658.56;;;28.29;43.15
72414;BME280;60995;52.154;4.498;2023-07-13T12:09:30;101664.19;;;27.54;43.28
72414;BME280;60995;52.154;4.498;2023-07-13T12:11:46;101664.97;;;27.80;43.20
72414;BME280;60995;52.154;4.498;2023-07-13T12:14:03;101666.66;;;28.00;43.34
72414;BME280;60995;52.154;4.498;2023-07-13T12:16:29;101664.03;;;29.32;41.66
72414;BME280;60995;52.154;4.498;2023-07-13T12:18:48;101665.00;;;29.26;41.71
72414;BME280;60995;52.154;4.498;2023-07-13T12:21:05;101659.28;;;29.20;40.98
72414;BME280;60995;52.154;4.498;2023-07-13T12:23:29;101668.09;;;28.82;40.01
72414;BME280;60995;52.154;4.498;2023-07-13T12:25:48;101664.50;;;29.41;40.06
72414;BME280;60995;52.154;4.498;2023-07-13T12:28:30;101664.91;;;29.32;39.18
72414;BME280;60995;52.154;4.498;2023-07-13T12:30:49;101665.25;;;29.36;41.06
72414;BME280;60995;52.154;4.498;2023-07-13T12:33:16;101672.69;;;28.15;42.10
72414;BME280;60995;52.154;4.498;2023-07-13T12:35:42;101670.41;;;28.97;41.19